createdAt,value
2023-01-05T00:02:02.108Z,11.10
2023-01-05T00:04:51.111Z,11.00
2023-01-05T00:07:40.037Z,11.10
2023-01-05T00:10:45.955Z,11.00
2023-01-05T00:13:53.753Z,10.90
2023-01-05T00:17:00.217Z,10.80
2023-01-05T00:20:06.550Z,10.70
2023-01-05T00:22:56.576Z,10.90
2023-01-05T00:25:45.533Z,11.00
2023-01-05T00:28:36.443Z,11.10
2023-01-05T00:31:26.391Z,11.10
2023-01-05T00:34:15.072Z,11.00
2023-01-05T00:37:04.459Z,10.70
2023-01-05T00:39:54.023Z,10.60
2023-01-05T00:42:43.395Z,10.90
2023-01-05T00:45:34.919Z,11.00
2023-01-05T00:48:26.057Z,11.20
2023-01-05T00:51:15.527Z,11.40
2023-01-05T00:54:04.685Z,11.50
2023-01-05T00:56:53.886Z,11.60
2023-01-05T00:59:43.614Z,11.60
2023-01-05T01:02:34.049Z,11.80
2023-01-05T01:05:23.009Z,11.80
2023-01-05T01:08:12.266Z,11.90
2023-01-05T01:11:06.410Z,11.90
2023-01-05T01:13:55.736Z,11.90
2023-01-05T01:16:45.437Z,11.80
2023-01-05T01:19:36.898Z,11.80
2023-01-05T01:22:26.540Z,11.80
2023-01-05T01:25:15.570Z,11.90
2023-01-05T01:28:04.780Z,12.00
2023-01-05T01:30:53.788Z,11.90
2023-01-05T01:33:43.073Z,11.80
2023-01-05T01:36:33.783Z,11.90
2023-01-05T01:39:22.831Z,11.90
2023-01-05T01:42:14.977Z,11.70
2023-01-05T01:45:17.388Z,11.60
2023-01-05T01:48:07.523Z,11.60
2023-01-05T01:51:00.920Z,11.50
2023-01-05T01:53:57.917Z,11.30
2023-01-05T01:56:53.157Z,11.40
2023-01-05T01:59:43.334Z,11.30
2023-01-05T02:05:26.351Z,10.70
2023-01-05T02:08:25.580Z,10.80
2023-01-05T02:11:39.763Z,10.50
2023-01-05T02:14:38.771Z,10.70
2023-01-05T02:17:40.489Z,10.60
2023-01-05T02:20:50.991Z,10.70
2023-01-05T02:24:36.626Z,10.70
2023-01-05T02:27:54.257Z,10.50
2023-01-05T02:31:19.560Z,10.50
2023-01-05T02:34:21.086Z,10.70
2023-01-05T02:37:16.347Z,10.60
2023-01-05T02:42:58.831Z,10.90
2023-01-05T02:45:48.505Z,10.90
2023-01-05T02:48:38.591Z,10.90
2023-01-05T02:51:35.054Z,11.00
2023-01-05T02:54:29.619Z,11.10
2023-01-05T02:57:21.741Z,11.10
2023-01-05T03:00:13.068Z,11.10
2023-01-05T03:03:07.319Z,10.80
2023-01-05T03:05:59.924Z,10.80
2023-01-05T03:08:55.164Z,10.90
2023-01-05T03:12:08.704Z,11.00
2023-01-05T03:15:01.194Z,10.60
2023-01-05T03:17:53.664Z,10.40
2023-01-05T03:20:45.797Z,10.10
2023-01-05T03:23:52.696Z,9.90
2023-01-05T03:27:00.774Z,10.00
2023-01-05T03:30:07.291Z,10.20
2023-01-05T03:33:20.365Z,10.40
2023-01-05T03:36:10.824Z,10.10
2023-01-05T03:39:02.947Z,10.10
2023-01-05T03:44:46.225Z,10.40
2023-01-05T03:47:35.489Z,10.40
2023-01-05T03:50:24.570Z,10.60
2023-01-05T03:53:13.677Z,10.70
2023-01-05T03:56:03.053Z,10.40
2023-01-05T03:58:53.559Z,10.30
2023-01-05T04:01:42.886Z,10.30
2023-01-05T04:04:31.959Z,10.20
2023-01-05T04:07:21.517Z,9.90
2023-01-05T04:10:11.262Z,10.10
2023-01-05T04:13:00.159Z,10.20
2023-01-05T04:15:51.329Z,10.20
2023-01-05T04:18:40.943Z,10.40
2023-01-05T04:21:30.036Z,10.50
2023-01-05T04:24:19.705Z,10.50
2023-01-05T04:27:08.900Z,10.60
2023-01-05T04:29:58.364Z,10.60
2023-01-05T04:32:48.802Z,10.70
2023-01-05T04:35:38.089Z,10.60
2023-01-05T04:38:27.283Z,10.60
2023-01-05T04:41:17.334Z,10.60
2023-01-05T04:44:07.955Z,10.50
2023-01-05T04:46:57.583Z,10.50
2023-01-05T04:49:48.235Z,10.70
2023-01-05T04:52:37.333Z,10.40
2023-01-05T04:55:27.863Z,10.20
2023-01-05T04:58:17.818Z,10.30
2023-01-05T05:01:07.822Z,10.40
2023-01-05T05:03:57.798Z,10.50
2023-01-05T05:06:48.535Z,10.40
2023-01-05T05:09:39.230Z,10.50
2023-01-05T05:12:28.609Z,10.60
2023-01-05T05:15:17.702Z,10.80
2023-01-05T05:18:09.439Z,10.90
2023-01-05T05:20:58.717Z,10.70
2023-01-05T05:23:49.470Z,10.70
2023-01-05T05:26:38.489Z,10.70
2023-01-05T05:29:28.702Z,10.70
2023-01-05T05:32:18.191Z,10.70
2023-01-05T05:35:08.141Z,10.50
2023-01-05T05:37:57.127Z,10.50
2023-01-05T05:40:49.370Z,10.50
2023-01-05T05:43:38.394Z,10.60
2023-01-05T05:46:27.937Z,10.70
2023-01-05T05:49:17.305Z,10.70
2023-01-05T05:52:06.560Z,10.70
2023-01-05T05:54:56.279Z,10.70
2023-01-05T05:57:47.424Z,10.80
2023-01-05T06:00:36.632Z,10.90
2023-01-05T06:03:26.574Z,11.00
2023-01-05T06:06:16.203Z,11.00
2023-01-05T06:09:05.703Z,10.90
2023-01-05T06:11:55.456Z,10.70
2023-01-05T06:14:46.641Z,10.70
2023-01-05T06:17:35.559Z,10.70
2023-01-05T06:20:25.024Z,10.70
2023-01-05T06:23:16.965Z,10.60
2023-01-05T06:26:06.693Z,10.60
2023-01-05T06:28:57.359Z,10.60
2023-01-05T06:31:48.281Z,10.60
2023-01-05T06:34:37.381Z,10.60
2023-01-05T06:37:27.214Z,10.60
2023-01-05T06:40:16.340Z,10.60
2023-01-05T06:43:05.322Z,10.70
2023-01-05T06:45:54.592Z,10.50
2023-01-05T06:48:45.504Z,10.50
2023-01-05T06:51:34.569Z,10.50
2023-01-05T06:54:23.874Z,10.30
2023-01-05T06:57:13.338Z,10.30
2023-01-05T07:00:02.748Z,10.40
2023-01-05T07:02:52.109Z,10.40
2023-01-05T07:05:43.800Z,10.40
2023-01-05T07:08:32.765Z,10.60
2023-01-05T07:11:22.349Z,10.60
2023-01-05T07:14:13.390Z,10.60
2023-01-05T07:17:02.463Z,10.50
2023-01-05T07:19:51.706Z,10.40
2023-01-05T07:22:42.805Z,10.50
2023-01-05T07:25:33.338Z,10.50
2023-01-05T07:28:22.241Z,10.50
2023-01-05T07:31:11.366Z,10.30
2023-01-05T07:34:00.491Z,10.20
2023-01-05T07:36:50.312Z,10.30
2023-01-05T07:39:41.429Z,10.30
2023-01-05T07:42:30.711Z,10.30
2023-01-05T07:45:20.450Z,10.30
2023-01-05T07:48:09.328Z,10.50
2023-01-05T07:51:02.857Z,10.70
2023-01-05T07:53:53.578Z,10.60
2023-01-05T07:56:44.310Z,10.50
2023-01-05T07:59:33.224Z,10.60
2023-01-05T08:02:22.528Z,10.60
2023-01-05T08:05:12.206Z,10.70
2023-01-05T08:08:01.448Z,10.60
2023-01-05T08:10:51.023Z,10.60
2023-01-05T08:13:58.502Z,10.60
2023-01-05T08:16:47.507Z,10.60
2023-01-05T08:19:36.759Z,10.40
2023-01-05T08:22:26.053Z,10.30
2023-01-05T08:25:14.985Z,10.40
2023-01-05T08:28:04.503Z,10.50
2023-01-05T08:30:55.221Z,10.50
2023-01-05T08:33:44.685Z,10.40
2023-01-05T08:36:34.446Z,10.50
2023-01-05T08:39:23.951Z,10.40
2023-01-05T08:42:12.885Z,10.50
2023-01-05T08:45:02.257Z,10.50
2023-01-05T08:47:53.573Z,10.50
2023-01-05T08:50:42.595Z,10.50
2023-01-05T08:53:31.633Z,10.60
2023-01-05T08:56:22.261Z,10.80
2023-01-05T08:59:14.735Z,10.90
2023-01-05T09:02:03.988Z,10.90
2023-01-05T09:04:54.826Z,10.70
2023-01-05T09:07:45.757Z,10.70
2023-01-05T09:10:35.482Z,10.60
2023-01-05T09:13:24.878Z,10.70
2023-01-05T09:16:21.402Z,10.70
2023-01-05T09:19:25.811Z,10.80
2023-01-05T09:22:16.570Z,11.00
2023-01-05T09:25:07.337Z,11.00
2023-01-05T09:27:57.577Z,10.90
2023-01-05T09:30:50.526Z,10.80
2023-01-05T09:33:40.192Z,11.00
2023-01-05T09:36:29.091Z,10.70
2023-01-05T09:39:19.580Z,10.60
2023-01-05T09:42:15.996Z,10.70
2023-01-05T09:45:07.841Z,10.80
2023-01-05T09:47:59.041Z,11.00
2023-01-05T09:50:50.349Z,11.00
2023-01-05T09:53:41.129Z,11.00
2023-01-05T09:57:07.955Z,11.00
2023-01-05T09:59:46.408Z,11.10
2023-01-05T10:02:45.382Z,11.20
2023-01-05T10:05:36.061Z,11.40
2023-01-05T10:08:34.162Z,11.40
2023-01-05T10:11:46.857Z,11.50
2023-01-05T10:14:41.236Z,11.00
2023-01-05T10:17:44.275Z,10.90
2023-01-05T10:20:45.726Z,10.70
2023-01-05T10:23:57.433Z,10.50
2023-01-05T10:27:24.240Z,10.40
2023-01-05T10:30:17.010Z,10.60
2023-01-05T10:33:40.244Z,10.80
2023-01-05T10:37:11.641Z,11.10
2023-01-05T10:40:03.658Z,11.30
2023-01-05T10:43:11.667Z,11.50
2023-01-05T10:46:31.174Z,11.40
2023-01-05T10:49:21.175Z,11.40
2023-01-05T10:52:14.933Z,11.50
2023-01-05T10:55:13.065Z,11.70
2023-01-05T10:58:02.334Z,11.70
2023-01-05T11:00:54.067Z,11.60
2023-01-05T11:04:25.082Z,11.40
2023-01-05T11:07:05.550Z,11.50
2023-01-05T11:09:54.977Z,11.50
2023-01-05T11:12:53.726Z,11.60
2023-01-05T11:15:48.449Z,11.70
2023-01-05T11:18:44.080Z,11.70
2023-01-05T11:21:45.619Z,11.70
2023-01-05T11:24:36.978Z,11.80
2023-01-05T11:27:26.953Z,12.10
2023-01-05T11:30:25.799Z,12.30
2023-01-05T11:33:23.054Z,12.40
2023-01-05T11:36:17.281Z,12.50
2023-01-05T11:39:08.024Z,12.70
2023-01-05T11:42:25.091Z,12.60
2023-01-05T11:45:26.092Z,12.60
2023-01-05T11:48:22.502Z,12.80
2023-01-05T11:51:11.265Z,12.90
2023-01-05T11:54:00.459Z,13.30
2023-01-05T11:56:54.587Z,13.50
2023-01-05T11:59:43.708Z,13.80
2023-01-05T12:03:04.135Z,14.00
2023-01-05T12:05:55.972Z,14.40
2023-01-05T12:08:54.121Z,14.70
2023-01-05T12:11:49.896Z,14.90
2023-01-05T12:15:06.113Z,15.20
2023-01-05T12:18:06.100Z,15.50
2023-01-05T12:21:02.357Z,15.50
2023-01-05T12:24:23.871Z,15.50
2023-01-05T12:27:28.696Z,15.60
2023-01-05T12:34:05.155Z,15.80
2023-01-05T12:37:10.832Z,16.00
2023-01-05T12:40:26.920Z,16.20
2023-01-05T12:43:25.171Z,16.30
2023-01-05T12:46:33.909Z,16.30
2023-01-05T12:49:29.275Z,16.40
2023-01-05T12:52:25.535Z,16.60
2023-01-05T12:55:19.891Z,16.60
2023-01-05T12:58:17.178Z,16.70
2023-01-05T13:01:12.924Z,16.80
2023-01-05T13:04:07.633Z,16.70
2023-01-05T13:07:00.966Z,16.70
2023-01-05T13:10:02.531Z,16.70
2023-01-05T13:12:58.362Z,16.60
2023-01-05T13:15:56.025Z,16.60
2023-01-05T13:18:51.094Z,16.20
2023-01-05T13:21:45.771Z,15.90
2023-01-05T13:24:37.615Z,15.90
2023-01-05T13:27:29.327Z,15.80
2023-01-05T13:30:27.311Z,15.80
2023-01-05T13:36:34.577Z,15.60
2023-01-05T13:39:44.373Z,15.40
2023-01-05T13:42:54.935Z,15.30
2023-01-05T13:46:04.711Z,15.10
2023-01-05T13:49:13.283Z,14.80
2023-01-05T13:52:03.898Z,14.80
2023-01-05T13:55:02.396Z,14.70
2023-01-05T13:57:51.848Z,14.40
2023-01-05T14:00:44.003Z,14.20
2023-01-05T14:03:36.522Z,12.90
2023-01-05T14:06:28.906Z,13.80
2023-01-05T14:09:22.441Z,13.90
2023-01-05T14:12:45.232Z,13.90
2023-01-05T14:15:42.008Z,14.00
2023-01-05T14:18:53.342Z,14.00
2023-01-05T14:22:02.113Z,14.00
2023-01-05T14:24:52.843Z,14.00
2023-01-05T14:28:43.725Z,13.90
2023-01-05T14:31:43.410Z,13.90
2023-01-05T14:34:33.192Z,13.80
2023-01-05T14:37:25.582Z,13.70
2023-01-05T14:40:30.740Z,13.80
2023-01-05T14:43:29.355Z,13.70
2023-01-05T14:46:18.550Z,13.70
2023-01-05T14:49:11.568Z,13.70
2023-01-05T14:52:02.165Z,13.70
2023-01-05T14:58:14.145Z,13.60
2023-01-05T15:01:18.200Z,13.60
2023-01-05T15:04:09.698Z,13.70
2023-01-05T15:07:15.896Z,14.00
2023-01-05T15:10:24.743Z,14.30
2023-01-05T15:14:09.078Z,14.50
2023-01-05T15:17:20.514Z,14.70
2023-01-05T15:20:26.792Z,14.80
2023-01-05T15:23:40.345Z,14.90
2023-01-05T15:26:43.851Z,15.00
2023-01-05T15:29:53.944Z,15.20
2023-01-05T15:32:46.280Z,15.30
2023-01-05T15:35:39.872Z,15.40
2023-01-05T15:38:31.958Z,15.40
2023-01-05T15:41:23.298Z,15.80
2023-01-05T15:44:17.433Z,15.40
2023-01-05T15:47:09.856Z,15.50
2023-01-05T15:50:01.675Z,15.50
2023-01-05T15:52:55.872Z,15.60
2023-01-05T15:55:46.781Z,15.60
2023-01-05T15:58:45.814Z,15.30
2023-01-05T16:01:39.788Z,15.00
2023-01-05T16:04:29.303Z,14.60
2023-01-05T16:07:20.017Z,14.30
2023-01-05T16:10:19.183Z,14.00
2023-01-05T16:13:13.467Z,13.80
2023-01-05T16:16:05.334Z,13.60
2023-01-05T16:18:56.974Z,13.40
2023-01-05T16:21:50.473Z,13.30
2023-01-05T16:27:38.428Z,13.10
2023-01-05T16:30:33.388Z,13.10
2023-01-05T16:33:34.868Z,13.00
2023-01-05T16:36:24.312Z,13.10
2023-01-05T16:39:17.445Z,13.00
2023-01-05T16:42:40.619Z,13.00
2023-01-05T16:48:48.135Z,12.70
2023-01-05T16:51:44.155Z,12.60
2023-01-05T16:54:39.726Z,12.60
2023-01-05T16:57:41.494Z,12.60
2023-01-05T17:00:37.273Z,12.50
2023-01-05T17:03:31.395Z,12.50
2023-01-05T17:06:26.673Z,12.40
2023-01-05T17:09:21.664Z,12.40
2023-01-05T17:12:11.179Z,12.50
2023-01-05T17:15:06.648Z,12.50
2023-01-05T17:17:56.858Z,12.40
2023-01-05T17:20:47.595Z,12.30
2023-01-05T17:26:30.990Z,12.00
2023-01-05T17:29:22.089Z,11.90
2023-01-05T17:32:13.497Z,11.90
2023-01-05T17:35:02.600Z,11.90
2023-01-05T17:37:51.511Z,11.70
2023-01-05T17:40:40.805Z,11.60
2023-01-05T17:43:30.276Z,11.60
2023-01-05T17:46:22.162Z,11.70
2023-01-05T17:49:15.710Z,11.70
2023-01-05T17:52:05.697Z,11.50
2023-01-05T17:54:55.565Z,11.40
2023-01-05T17:57:45.261Z,11.40
2023-01-05T18:00:39.903Z,11.40
2023-01-05T18:03:29.480Z,11.30
2023-01-05T18:06:20.285Z,11.00
2023-01-05T18:09:09.515Z,11.00
2023-01-05T18:11:58.589Z,11.20
2023-01-05T18:14:49.614Z,11.10
2023-01-05T18:17:39.763Z,11.20
2023-01-05T18:20:30.273Z,11.20
2023-01-05T18:23:24.453Z,11.20
2023-01-05T18:26:13.369Z,11.20
2023-01-05T18:29:02.675Z,11.00
2023-01-05T18:31:53.569Z,10.90
2023-01-05T18:34:43.453Z,11.00
2023-01-05T18:37:34.336Z,11.00
2023-01-05T18:40:24.638Z,11.00
2023-01-05T18:43:14.076Z,11.00
2023-01-05T18:46:04.466Z,10.90
2023-01-05T18:48:54.593Z,10.90
2023-01-05T18:51:43.752Z,10.80
2023-01-05T18:54:33.372Z,10.70
2023-01-05T18:57:23.820Z,10.70
2023-01-05T19:00:14.984Z,10.80
2023-01-05T19:03:04.059Z,10.80
2023-01-05T19:05:53.224Z,10.70
2023-01-05T19:08:43.093Z,10.40
2023-01-05T20:00:34.369Z,11.30
2023-01-05T20:03:23.733Z,11.30
2023-01-05T20:06:14.823Z,11.20
2023-01-05T20:09:07.477Z,11.20
2023-01-05T20:12:05.700Z,11.20
2023-01-05T20:15:01.690Z,11.20
2023-01-05T20:17:52.024Z,11.20
2023-01-05T20:20:42.195Z,11.20
2023-01-05T20:23:35.729Z,11.10
2023-01-05T20:26:26.201Z,11.10
2023-01-05T20:29:16.815Z,11.00
2023-01-05T20:32:08.469Z,11.00
2023-01-05T20:35:01.027Z,11.00
2023-01-05T20:37:50.269Z,10.90
2023-01-05T20:40:39.762Z,10.90
2023-01-05T20:43:28.881Z,10.80
2023-01-05T20:46:20.734Z,10.80
2023-01-05T20:49:10.074Z,10.80
2023-01-05T20:52:00.673Z,10.80
2023-01-05T20:54:50.495Z,10.80
2023-01-05T20:57:40.211Z,10.70
2023-01-05T21:00:29.768Z,10.70
2023-01-05T21:03:19.183Z,10.70
2023-01-05T21:06:10.037Z,10.60
2023-01-05T21:09:01.773Z,10.50
2023-01-05T21:11:51.563Z,10.40
2023-01-05T21:14:41.387Z,10.30
2023-01-05T21:17:30.706Z,10.20
2023-01-05T21:20:20.789Z,10.20
2023-01-05T21:23:09.953Z,10.10
2023-01-05T21:28:58.663Z,10.10
2023-01-05T21:31:48.463Z,10.10
2023-01-05T21:34:37.684Z,10.10
2023-01-05T21:37:26.557Z,10.00
2023-01-05T21:40:15.525Z,10.00
2023-01-05T21:43:06.278Z,10.00
2023-01-05T21:45:57.543Z,10.00
2023-01-05T21:48:47.086Z,10.00
2023-01-05T21:51:53.739Z,10.00
2023-01-05T21:55:00.835Z,10.00
2023-01-05T21:57:49.841Z,10.00
2023-01-05T22:00:41.194Z,10.10
2023-01-05T22:03:31.161Z,10.10
2023-01-05T22:06:20.790Z,10.20
2023-01-05T22:09:09.855Z,10.20
2023-01-05T22:11:58.846Z,10.20
2023-01-05T22:14:48.124Z,10.20
2023-01-05T22:17:39.605Z,10.30
2023-01-05T22:20:29.033Z,10.30
2023-01-05T22:23:18.881Z,10.40
2023-01-05T22:26:09.540Z,10.40
2023-01-05T22:28:58.901Z,10.40
2023-01-05T22:31:50.443Z,10.40
2023-01-05T22:34:43.835Z,10.40
2023-01-05T22:37:33.146Z,10.30
2023-01-05T22:40:22.876Z,10.40
2023-01-05T22:43:12.165Z,10.40
2023-01-05T22:46:05.095Z,10.40
2023-01-05T22:48:56.185Z,10.40
2023-01-05T22:51:47.316Z,10.30
2023-01-05T22:54:39.237Z,10.30
2023-01-05T22:57:28.172Z,10.30
2023-01-05T23:00:17.690Z,10.30
2023-01-05T23:03:06.871Z,10.30
2023-01-05T23:05:56.203Z,10.40
2023-01-05T23:08:48.284Z,10.30
2023-01-05T23:11:39.506Z,9.90
2023-01-05T23:14:28.751Z,9.60
2023-01-05T23:17:18.413Z,9.40
2023-01-05T23:20:08.812Z,9.40
2023-01-05T23:22:58.448Z,9.60
2023-01-05T23:25:49.701Z,9.70
2023-01-05T23:28:39.040Z,9.70
2023-01-05T23:31:28.475Z,9.30
2023-01-05T23:34:17.468Z,9.10
2023-01-05T23:37:06.536Z,9.10
2023-01-05T23:39:56.244Z,8.90
2023-01-05T23:42:47.841Z,8.40
2023-01-05T23:45:38.089Z,8.30
2023-01-05T23:48:27.835Z,8.00
2023-01-05T23:51:17.692Z,8.00
2023-01-05T23:54:07.257Z,8.30
2023-01-05T23:59:50.271Z,8.90
